createdAt,value
2018-05-27T10:44:36.055Z,28.96
2018-05-27T10:45:35.791Z,29.25
2018-05-27T10:46:35.803Z,27.57
2018-05-27T10:47:35.788Z,29.24
2018-05-27T10:48:35.801Z,30.15
2018-05-27T10:50:36.291Z,28.56
2018-05-27T10:51:35.793Z,27.28
2018-05-27T10:52:35.780Z,27.87
2018-05-27T10:53:35.784Z,28.75
2018-05-27T10:54:35.791Z,30.54
2018-05-27T10:55:35.794Z,27.17
2018-05-27T10:56:35.988Z,29.24
2018-05-27T10:57:35.847Z,29.83
2018-05-27T10:58:35.826Z,29.34
2018-05-27T10:59:35.798Z,28.95
2018-05-27T11:00:35.868Z,29.93
2018-05-27T11:01:35.815Z,32.31
2018-05-27T11:02:36.168Z,29.16
2018-05-27T11:03:35.883Z,29.55
2018-05-27T11:04:35.856Z,29.24
2018-05-27T11:07:35.817Z,30.51
2018-05-27T11:08:35.860Z,31.60
2018-05-27T11:09:36.172Z,30.73
2018-05-27T11:10:36.655Z,30.15
2018-05-27T11:11:35.998Z,30.54
2018-05-27T11:12:35.832Z,30.65
2018-05-27T11:13:35.828Z,31.63
2018-05-27T11:14:36.000Z,29.75
2018-05-27T11:15:36.192Z,30.04
2018-05-27T11:16:35.957Z,30.63
2018-05-27T11:17:38.248Z,30.04
2018-05-27T11:18:35.849Z,30.54
2018-05-27T11:19:35.880Z,29.07
2018-05-27T11:20:35.864Z,30.16
2018-05-27T11:21:36.219Z,29.85
2018-05-27T11:22:35.988Z,29.96
2018-05-27T11:23:35.877Z,29.28
2018-05-27T11:24:35.875Z,29.28
2018-05-27T11:25:35.881Z,29.38
2018-05-27T11:26:35.876Z,29.28
2018-05-27T11:27:36.938Z,29.58
2018-05-27T11:28:37.746Z,28.91
2018-05-27T11:29:35.903Z,28.21
2018-05-27T11:30:35.912Z,28.99
2018-05-27T11:31:35.927Z,28.28
2018-05-27T11:32:35.908Z,30.65
2018-05-27T11:33:35.968Z,28.66
2018-05-27T11:34:38.416Z,28.85
2018-05-27T11:37:36.030Z,30.40
2018-05-27T11:38:35.947Z,31.18
2018-05-27T11:39:36.030Z,32.38
2018-05-27T11:40:36.065Z,32.31
2018-05-27T11:42:36.268Z,32.23
2018-05-27T11:43:35.970Z,30.55
2018-05-27T11:44:35.971Z,29.57
2018-05-27T11:45:36.029Z,30.15
2018-05-27T11:46:39.326Z,32.01
2018-05-27T11:47:35.989Z,29.35
2018-05-27T11:48:36.045Z,30.54
2018-05-27T11:49:36.312Z,31.23
2018-05-27T11:50:36.122Z,29.94
2018-05-27T11:51:36.065Z,30.22
2018-05-27T11:52:36.115Z,29.83
2018-05-27T11:53:36.018Z,31.11
2018-05-27T11:55:36.352Z,30.73
2018-05-27T11:56:36.054Z,29.46
2018-05-27T11:57:36.165Z,29.33
2018-05-27T11:58:36.112Z,30.21
2018-05-27T11:59:36.109Z,29.61
2018-05-27T12:00:36.058Z,30.69
2018-05-27T12:01:36.215Z,32.28
2018-05-27T12:02:36.393Z,29.51
2018-05-27T12:03:36.851Z,30.60
2018-05-27T12:04:36.131Z,29.82
2018-05-27T12:05:36.100Z,29.43
2018-05-27T12:06:36.110Z,32.00
2018-05-27T12:07:36.112Z,29.35
2018-05-27T12:08:36.102Z,29.85
2018-05-27T12:09:36.628Z,29.75
2018-05-27T12:10:37.195Z,29.47
2018-05-27T12:11:36.201Z,28.38
2018-05-27T12:12:36.206Z,28.88
2018-05-27T12:13:36.162Z,30.06
2018-05-27T12:14:36.147Z,30.06
2018-05-27T12:15:36.197Z,29.37
2018-05-27T12:16:36.508Z,28.19
2018-05-27T12:17:36.220Z,28.40
2018-05-27T12:18:36.159Z,28.30
2018-05-27T12:19:36.467Z,28.30
2018-05-27T12:20:36.184Z,26.92
2018-05-27T12:21:36.181Z,27.01
2018-05-27T12:22:36.244Z,27.70
2018-05-27T12:23:36.575Z,27.92
2018-05-27T12:24:36.252Z,27.70
2018-05-27T12:25:36.206Z,27.99
2018-05-27T12:26:36.218Z,28.40
2018-05-27T12:27:36.214Z,29.88
2018-05-27T12:28:36.238Z,26.21
2018-05-27T12:29:36.288Z,26.10
2018-05-27T12:30:36.292Z,27.68
2018-05-27T12:31:36.249Z,27.39
2018-05-27T12:32:36.256Z,26.59
2018-05-27T12:33:36.260Z,26.99
2018-05-27T12:34:36.268Z,27.39
2018-05-27T12:35:36.362Z,27.97
2018-05-27T12:36:36.626Z,27.09
2018-05-27T12:37:36.332Z,26.20
2018-05-27T12:38:36.290Z,26.10
2018-05-27T12:39:36.297Z,26.20
2018-05-27T12:40:36.305Z,27.48
2018-05-27T12:41:36.397Z,28.09
2018-05-27T12:42:36.671Z,25.72
2018-05-27T12:43:36.314Z,27.59
2018-05-27T12:44:36.312Z,26.81
2018-05-27T12:45:36.337Z,29.07
2018-05-27T12:46:36.332Z,28.19
2018-05-27T12:47:36.409Z,28.69
2018-05-27T12:48:36.706Z,28.00
2018-05-27T12:49:36.353Z,26.41
2018-05-27T12:50:36.363Z,25.89
2018-05-27T12:51:36.365Z,28.03
2018-05-27T12:52:36.383Z,27.84
2018-05-27T12:53:36.475Z,27.64
2018-05-27T12:54:36.738Z,28.41
2018-05-27T12:55:36.437Z,29.90
2018-05-27T12:56:36.383Z,29.33
2018-05-27T12:57:36.406Z,28.54
2018-05-27T12:58:36.395Z,27.75
2018-05-27T12:59:36.407Z,28.95
2018-05-27T13:00:36.765Z,28.93
2018-05-27T13:01:38.842Z,28.95
2018-05-27T13:02:37.252Z,29.75
2018-05-27T13:03:36.422Z,29.85
2018-05-27T13:04:36.436Z,28.97
2018-05-27T13:05:36.440Z,30.45
2018-05-27T13:06:36.833Z,27.41
2018-05-27T13:07:36.495Z,25.92
2018-05-27T13:08:38.358Z,29.17
2018-05-27T13:09:36.469Z,28.96
2018-05-27T13:10:36.466Z,29.47
2018-05-27T13:11:36.615Z,29.38
2018-05-27T13:12:36.776Z,27.11
2018-05-27T13:13:36.474Z,28.00
2018-05-27T13:14:36.563Z,29.38
2018-05-27T13:15:36.637Z,28.40
2018-05-27T13:16:36.573Z,29.00
2018-05-27T13:17:38.658Z,27.41
2018-05-27T13:19:36.830Z,28.41
2018-05-27T13:20:36.570Z,28.70
2018-05-27T13:21:36.573Z,29.51
2018-05-27T13:22:36.524Z,27.04
2018-05-27T13:23:36.543Z,25.95
2018-05-27T13:24:36.544Z,27.01
2018-05-27T13:25:36.560Z,26.92
2018-05-27T13:26:37.059Z,26.03
2018-05-27T13:27:36.627Z,25.81
2018-05-27T13:28:36.561Z,25.98
2018-05-27T13:29:36.576Z,26.87
2018-05-27T13:30:36.603Z,26.97
2018-05-27T13:31:36.606Z,28.44
2018-05-27T13:32:36.644Z,28.06
2018-05-27T13:33:36.957Z,27.96
2018-05-27T13:34:36.654Z,28.27
2018-05-27T13:35:36.626Z,27.09
2018-05-27T13:36:36.615Z,28.37
2018-05-27T13:37:36.616Z,28.97
2018-05-27T13:38:36.674Z,29.47
2018-05-27T13:39:36.759Z,30.06
2018-05-27T13:40:36.954Z,29.97
2018-05-27T13:41:36.652Z,29.68
2018-05-27T13:42:36.674Z,26.31
2018-05-27T13:43:41.754Z,27.69
2018-05-27T13:44:36.740Z,28.68
2018-05-27T13:45:36.777Z,29.48
2018-05-27T13:46:37.032Z,30.27
2018-05-27T13:47:36.682Z,27.70
2018-05-27T13:49:36.700Z,26.03
2018-05-27T13:50:36.784Z,28.31
2018-05-27T13:51:36.809Z,27.11
2018-05-27T13:52:37.125Z,25.92
2018-05-27T13:53:36.716Z,28.56
2018-05-27T13:54:36.739Z,27.19
2018-05-27T13:55:36.744Z,28.17
2018-05-27T13:57:36.788Z,30.83
2018-05-27T13:58:37.148Z,29.96
2018-05-27T13:59:36.817Z,29.48
2018-05-27T14:00:36.823Z,27.30
2018-05-27T14:01:36.769Z,29.47
2018-05-27T14:02:36.775Z,28.97
2018-05-27T14:03:36.836Z,29.76
2018-05-27T14:04:36.947Z,29.38
2018-05-27T14:05:37.095Z,25.72
2018-05-27T14:06:36.804Z,26.81
2018-05-27T14:07:36.860Z,28.47
2018-05-27T14:08:36.877Z,27.87
2018-05-27T14:09:36.816Z,28.96
2018-05-27T14:11:37.137Z,28.17
2018-05-27T14:12:36.835Z,28.06
2018-05-27T14:13:36.896Z,29.05
2018-05-27T14:14:36.960Z,27.67
2018-05-27T14:15:36.904Z,28.44
2018-05-27T14:17:37.171Z,29.05
2018-05-27T14:18:36.876Z,29.44
2018-05-27T14:19:36.949Z,28.86
2018-05-27T14:20:36.931Z,28.06
2018-05-27T14:21:37.138Z,28.45
2018-05-27T14:22:36.899Z,27.47
2018-05-27T14:23:36.903Z,30.32
2018-05-27T14:25:36.917Z,28.96
2018-05-27T14:26:37.212Z,30.04
2018-05-27T14:27:36.985Z,28.37
2018-05-27T14:28:36.985Z,28.65
2018-05-27T14:29:36.950Z,29.53
2018-05-27T14:30:37.239Z,29.24
2018-05-27T14:31:36.956Z,28.93
2018-05-27T14:32:36.976Z,30.11
2018-05-27T14:33:37.015Z,29.33
2018-05-27T14:34:37.113Z,29.43
2018-05-27T14:35:36.984Z,27.56
2018-05-27T14:36:37.282Z,30.11
2018-05-27T14:37:37.278Z,28.23
2018-05-27T14:38:36.994Z,29.90
2018-05-27T14:39:37.049Z,30.69
2018-05-27T14:40:38.356Z,29.43
2018-05-27T14:41:37.011Z,30.02
2018-05-27T14:42:37.314Z,29.43
2018-05-27T14:43:37.013Z,29.13
2018-05-27T14:44:37.107Z,29.43
2018-05-27T14:45:37.128Z,27.84
2018-05-27T14:46:37.028Z,28.91
2018-05-27T14:47:37.040Z,28.91
2018-05-27T14:48:37.339Z,29.77
2018-05-27T14:49:37.073Z,31.46
2018-05-27T14:50:37.108Z,29.71
2018-05-27T14:51:37.108Z,31.20
2018-05-27T14:52:37.059Z,29.74
2018-05-27T14:53:37.076Z,31.41
2018-05-27T14:54:37.374Z,29.46
2018-05-27T14:56:37.131Z,27.09
2018-05-27T14:57:37.146Z,27.57
2018-05-27T14:58:37.157Z,28.16
2018-05-27T14:59:37.104Z,27.56
2018-05-27T15:00:37.411Z,28.92
2018-05-27T15:01:37.109Z,32.36
2018-05-27T15:02:37.126Z,30.88
2018-05-27T15:03:37.180Z,28.34
2018-05-27T15:05:37.185Z,30.65
2018-05-27T15:08:37.438Z,30.50
2018-05-27T15:09:37.213Z,30.21
2018-05-27T15:10:37.206Z,30.42
2018-05-27T15:11:37.212Z,30.82
2018-05-27T15:12:37.166Z,29.85
2018-05-27T15:13:37.155Z,28.86
2018-05-27T15:14:37.463Z,28.96
2018-05-27T15:15:37.164Z,29.83
2018-05-27T15:16:37.278Z,32.76
2018-05-27T15:17:37.226Z,31.30
2018-05-27T15:18:37.243Z,32.48
2018-05-27T15:19:37.198Z,32.40
2018-05-27T15:20:37.495Z,31.04
2018-05-27T15:21:37.413Z,32.43
2018-05-27T15:23:37.258Z,30.36
2018-05-27T15:24:37.258Z,30.17
2018-05-27T15:25:37.219Z,30.46
2018-05-27T15:26:37.515Z,30.36
2018-05-27T15:28:37.421Z,29.77
2018-05-27T15:29:37.279Z,30.47
2018-05-27T15:30:38.404Z,31.94
2018-05-27T15:31:37.224Z,31.05
2018-05-27T15:32:37.541Z,29.19
2018-05-27T15:33:37.252Z,29.76
2018-05-27T15:34:37.246Z,28.88
2018-05-27T15:35:37.375Z,30.33
2018-05-27T15:36:37.305Z,29.62
2018-05-27T15:37:37.386Z,30.19
2018-05-27T15:38:37.319Z,30.55
2018-05-27T15:39:37.571Z,31.70
2018-05-27T15:40:37.271Z,32.68
2018-05-27T15:41:37.265Z,32.79
2018-05-27T15:42:37.568Z,31.93
2018-05-27T15:43:37.344Z,33.61
2018-05-27T15:44:37.336Z,30.75
2018-05-27T15:45:37.839Z,33.56
2018-05-27T15:46:37.586Z,35.52
2018-05-27T15:47:37.342Z,33.92
2018-05-27T15:48:37.295Z,34.09
2018-05-27T15:49:37.342Z,35.64
2018-05-27T15:50:37.341Z,35.17
2018-05-27T15:51:37.398Z,36.62
2018-05-27T15:52:37.599Z,34.55
2018-05-27T15:53:37.306Z,35.51
2018-05-27T15:54:37.491Z,36.98
2018-05-27T15:55:37.356Z,36.23
2018-05-27T15:56:37.951Z,36.26
2018-05-27T15:57:37.318Z,37.55
2018-05-27T15:58:37.603Z,34.14
2018-05-27T15:59:37.312Z,33.97
2018-05-27T16:00:37.306Z,35.44
2018-05-27T16:01:37.314Z,33.41
2018-05-27T16:02:37.369Z,33.10
2018-05-27T16:03:37.366Z,33.69
2018-05-27T16:04:37.747Z,32.12
2018-05-27T16:05:37.327Z,33.20
2018-05-27T16:06:37.369Z,33.28
2018-05-27T16:07:37.327Z,34.84
2018-05-27T16:08:37.364Z,33.67
2018-05-27T16:09:37.471Z,33.65
2018-05-27T16:10:37.681Z,34.14
2018-05-27T16:11:37.330Z,33.95
2018-05-27T16:12:37.323Z,35.13
2018-05-27T16:13:37.329Z,33.20
2018-05-27T16:14:37.371Z,34.18
2018-05-27T16:15:37.379Z,32.81
2018-05-27T16:16:37.632Z,33.50
2018-05-27T16:17:37.332Z,32.51
2018-05-27T16:18:37.337Z,32.22
2018-05-27T16:19:37.339Z,33.69
2018-05-27T16:20:37.378Z,33.67
2018-05-27T16:21:37.383Z,32.70
2018-05-27T16:22:37.480Z,33.59
2018-05-27T16:23:37.641Z,34.75
2018-05-27T16:24:37.330Z,34.47
2018-05-27T16:25:37.344Z,32.90
2018-05-27T16:26:37.329Z,34.47
2018-05-27T16:27:37.341Z,33.50
2018-05-27T16:28:37.437Z,34.86
2018-05-27T16:29:37.391Z,33.69
2018-05-27T16:30:37.698Z,34.08
2018-05-27T16:31:37.341Z,34.98
2018-05-27T16:32:37.343Z,35.08
2018-05-27T16:33:37.812Z,34.49
2018-05-27T16:34:37.740Z,33.62
2018-05-27T16:35:37.543Z,33.70
2018-05-27T16:36:37.827Z,33.51
2018-05-27T16:37:37.624Z,34.20
2018-05-27T16:38:37.340Z,31.73
2018-05-27T16:39:37.348Z,34.57
2018-05-27T16:40:37.368Z,33.59
2018-05-27T16:41:37.351Z,32.71
2018-05-27T16:42:37.653Z,33.09
2018-05-27T16:43:37.481Z,33.18
2018-05-27T16:44:37.404Z,32.99
2018-05-27T16:45:37.402Z,34.05
2018-05-27T16:46:37.357Z,33.95
2018-05-27T16:47:37.381Z,35.61
2018-05-27T16:48:37.651Z,35.34
2018-05-27T16:49:37.363Z,34.84
2018-05-27T16:50:37.478Z,33.95
2018-05-27T16:51:37.407Z,35.87
2018-05-27T16:52:37.417Z,36.63
2018-05-27T16:53:37.362Z,38.35
2018-05-27T16:54:37.671Z,38.65
2018-05-27T16:55:37.361Z,38.34
2018-05-27T16:56:37.524Z,37.48
2018-05-27T16:57:37.406Z,37.89
2018-05-27T16:58:37.413Z,37.70
2018-05-27T16:59:37.365Z,38.32
2018-05-27T17:00:37.661Z,35.38
2018-05-27T17:01:37.498Z,35.85
2018-05-27T17:02:37.356Z,37.22
2018-05-27T17:03:37.407Z,38.40
2018-05-27T17:04:37.460Z,37.30
2018-05-27T17:05:37.405Z,37.40
2018-05-27T17:06:37.662Z,36.60
2018-05-27T17:07:37.360Z,37.77
2018-05-27T17:08:37.410Z,38.14
2018-05-27T17:09:37.357Z,39.31
2018-05-27T17:10:37.512Z,38.14
2018-05-27T17:11:37.369Z,38.71
2018-05-27T17:12:37.702Z,39.39
2018-05-27T17:13:37.645Z,39.28
2018-05-27T17:14:37.359Z,40.08
2018-05-27T17:15:37.350Z,40.76
2018-05-27T17:16:37.361Z,40.08
2018-05-27T17:18:10.619Z,40.88
2018-05-27T17:19:37.713Z,37.75
2018-05-27T17:20:37.504Z,39.12
2018-05-27T17:21:37.358Z,39.59
2018-05-27T17:22:37.356Z,38.40
2018-05-27T17:23:37.358Z,39.55
2018-05-27T17:24:37.357Z,40.31
2018-05-27T17:25:37.341Z,41.57
2018-05-27T17:26:37.690Z,40.31
2018-05-27T17:27:37.497Z,41.06
2018-05-27T17:28:37.345Z,41.55
2018-05-27T17:29:37.337Z,41.26
2018-05-27T17:30:37.328Z,41.73
2018-05-27T17:31:37.437Z,42.11
2018-05-27T17:32:37.628Z,42.70
2018-05-27T17:33:37.439Z,43.19
2018-05-27T17:34:37.369Z,43.38
2018-05-27T17:35:37.525Z,43.38
2018-05-27T17:36:37.334Z,43.29
2018-05-27T17:37:37.318Z,43.29
2018-05-27T17:38:37.616Z,43.16
2018-05-27T17:39:37.319Z,42.68
2018-05-27T17:40:37.328Z,44.62
2018-05-27T17:41:37.456Z,45.89
2018-05-27T17:42:37.296Z,44.82
2018-05-27T17:43:37.297Z,44.70
2018-05-27T17:44:37.596Z,45.67
2018-05-27T17:45:37.298Z,45.57
2018-05-27T17:46:37.284Z,46.25
2018-05-27T17:47:37.403Z,45.18
2018-05-27T17:48:37.385Z,45.48
2018-05-27T17:49:37.272Z,45.09
2018-05-27T17:50:37.329Z,45.28
2018-05-27T17:51:37.596Z,45.87
2018-05-27T17:52:37.321Z,46.08
2018-05-27T17:53:37.310Z,46.25
2018-05-27T17:54:37.355Z,46.37
2018-05-27T17:55:37.348Z,45.79
2018-05-27T17:56:37.249Z,46.37
2018-05-27T17:57:37.538Z,45.50
2018-05-27T17:58:37.258Z,44.62
2018-05-27T17:59:37.286Z,45.67
2018-05-27T18:00:37.298Z,45.09
2018-05-27T18:01:37.225Z,45.38
2018-05-27T18:02:37.249Z,45.48
2018-05-27T18:04:10.780Z,46.91
2018-05-27T18:04:37.212Z,47.59
2018-05-27T18:05:37.276Z,47.49
2018-05-27T18:06:37.310Z,46.91
2018-05-27T18:07:37.644Z,47.86
2018-05-27T18:08:37.194Z,47.47
2018-05-27T18:09:37.493Z,48.64
2018-05-27T18:10:37.184Z,48.64
2018-05-27T18:11:37.192Z,49.22
2018-05-27T18:12:37.171Z,47.66
2018-05-27T18:13:37.221Z,48.05
2018-05-27T18:14:37.215Z,48.22
2018-05-27T18:15:37.551Z,48.42
2018-05-27T18:16:37.153Z,48.61
2018-05-27T18:17:37.149Z,49.29
2018-05-27T18:18:37.150Z,48.80
2018-05-27T18:19:37.132Z,49.87
2018-05-27T18:20:37.191Z,49.29
2018-05-27T18:21:37.484Z,49.49
2018-05-27T18:22:37.129Z,50.14
2018-05-27T18:23:37.118Z,49.95
2018-05-27T18:24:37.111Z,49.75
2018-05-27T18:25:37.095Z,49.07
2018-05-27T18:26:37.149Z,49.95
2018-05-27T18:27:37.136Z,50.72
2018-05-27T18:28:37.437Z,50.82
2018-05-27T18:29:37.088Z,50.72
2018-05-27T18:30:37.067Z,51.31
2018-05-27T18:31:37.068Z,51.86
2018-05-27T18:32:37.069Z,51.98
2018-05-27T18:33:37.107Z,51.57
2018-05-27T18:34:37.394Z,51.89
2018-05-27T18:35:37.089Z,52.25
2018-05-27T18:36:37.044Z,52.34
2018-05-27T18:37:37.026Z,51.67
2018-05-27T18:38:37.019Z,51.67
2018-05-27T18:39:37.080Z,51.86
2018-05-27T18:40:37.364Z,51.74
2018-05-27T18:41:37.006Z,52.22
2018-05-27T18:42:37.000Z,52.12
2018-05-27T18:43:37.391Z,51.84
2018-05-27T18:44:37.004Z,52.12
2018-05-27T18:45:37.078Z,52.03
2018-05-27T18:46:37.196Z,52.03
2018-05-27T18:47:37.354Z,53.00
2018-05-27T18:48:36.980Z,52.71
2018-05-27T18:49:36.951Z,52.71
2018-05-27T18:50:36.949Z,52.51
2018-05-27T18:51:37.643Z,52.80
2018-05-27T18:52:37.035Z,52.03
2018-05-27T18:53:36.986Z,52.71
2018-05-27T18:54:37.387Z,51.52
2018-05-27T18:55:36.944Z,51.74
2018-05-27T18:56:36.914Z,51.93
2018-05-27T18:57:36.901Z,52.03
2018-05-27T18:58:36.895Z,51.72
2018-05-27T18:59:36.881Z,51.74
2018-05-27T19:00:36.938Z,51.93
2018-05-27T19:01:37.429Z,51.74
2018-05-27T19:02:36.917Z,52.03
2018-05-27T19:04:36.853Z,53.09
2018-05-27T19:05:36.838Z,53.36
2018-05-27T19:06:36.885Z,53.55
2018-05-27T19:07:36.874Z,53.65
2018-05-27T19:08:37.179Z,54.13
2018-05-27T19:09:36.830Z,54.13
2018-05-27T19:10:36.801Z,55.00
2018-05-27T19:11:36.802Z,54.52
2018-05-27T19:12:36.836Z,55.56
2018-05-27T19:13:36.833Z,56.52
2018-05-27T19:14:36.787Z,57.20
2018-05-27T19:15:37.064Z,57.69
2018-05-27T19:16:36.765Z,58.17
2018-05-27T19:17:36.755Z,59.23
2018-05-27T19:18:36.799Z,59.31
2018-05-27T19:19:36.840Z,59.69
2018-05-27T19:20:36.781Z,58.34
2018-05-27T19:21:36.724Z,58.44
2018-05-27T19:22:36.972Z,58.82
2018-05-27T19:23:36.717Z,58.60
2018-05-27T19:24:36.751Z,58.80
2018-05-27T19:25:36.750Z,59.56
2018-05-27T19:27:36.680Z,59.95
2018-05-27T19:28:36.670Z,59.86
2018-05-27T19:29:36.958Z,59.73
2018-05-27T19:30:37.310Z,59.34
2018-05-27T19:31:36.648Z,59.25
2018-05-27T19:32:36.634Z,59.73
2018-05-27T19:33:36.627Z,59.05
2018-05-27T19:34:36.620Z,59.15
2018-05-27T19:35:36.920Z,58.95
2018-05-27T19:36:36.665Z,59.73
2018-05-27T19:37:36.645Z,59.44
2018-05-27T19:38:36.656Z,59.83
2018-05-27T19:39:36.591Z,59.05
2018-05-27T19:40:36.580Z,59.83
2018-05-27T19:41:36.890Z,59.34
2018-05-27T19:42:36.680Z,59.73
2018-05-27T19:43:36.596Z,59.63
2018-05-27T19:44:36.539Z,60.41
2018-05-27T19:46:36.535Z,60.02
2018-05-27T19:47:36.822Z,59.83
2018-05-27T19:48:36.563Z,60.50
2018-05-27T19:49:36.555Z,61.47
2018-05-27T19:50:36.496Z,60.69
2018-05-27T19:51:36.491Z,61.08
2018-05-27T19:52:36.505Z,61.27
2018-05-27T19:53:36.766Z,60.86
2018-05-27T19:54:36.671Z,61.05
2018-05-27T19:55:36.456Z,61.34
2018-05-27T19:56:36.639Z,61.54
2018-05-27T19:57:36.449Z,60.86
2018-05-27T19:59:36.717Z,61.83
2018-05-27T20:00:36.465Z,61.63
2018-05-27T20:01:36.515Z,62.31
2018-05-27T20:02:36.445Z,61.73
2018-05-27T20:04:36.388Z,61.73
2018-05-27T20:05:36.401Z,61.54
2018-05-27T20:06:36.710Z,62.02
2018-05-27T20:07:36.410Z,62.02
2018-05-27T20:08:36.419Z,61.83
2018-05-27T20:09:36.362Z,62.21
2018-05-27T20:10:36.325Z,62.02
2018-05-27T20:11:36.318Z,62.12
2018-05-27T20:12:36.667Z,62.31
2018-05-27T20:13:36.401Z,61.73
2018-05-27T20:14:36.293Z,61.92
2018-05-27T20:15:36.295Z,61.25
2018-05-27T20:16:36.275Z,61.92
2018-05-27T20:17:36.290Z,62.31
2018-05-27T20:18:36.420Z,60.96
2018-05-27T20:19:36.559Z,61.34
2018-05-27T20:20:36.256Z,61.44
2018-05-27T20:21:36.260Z,60.67
2018-05-27T20:22:36.232Z,60.28
2018-05-27T20:23:36.250Z,60.76
2018-05-27T20:24:36.281Z,60.76
2018-05-27T20:25:36.256Z,60.28
2018-05-27T20:26:36.536Z,59.89
2018-05-27T20:27:36.199Z,60.18
2018-05-27T20:28:36.182Z,60.47
2018-05-27T20:29:36.172Z,60.38
2018-05-27T20:30:36.210Z,60.57
2018-05-27T20:31:36.210Z,60.57
2018-05-27T20:32:36.140Z,61.44
2018-05-27T20:33:36.135Z,61.15
2018-05-27T20:34:36.120Z,61.80
2018-05-27T20:35:36.128Z,62.28
2018-05-27T20:36:36.159Z,61.70
2018-05-27T20:37:36.143Z,61.73
2018-05-27T20:38:36.085Z,61.89
2018-05-27T20:39:36.376Z,62.08
2018-05-27T20:40:36.090Z,62.86
2018-05-27T20:41:36.117Z,62.28
2018-05-27T20:42:36.098Z,62.66
2018-05-27T20:43:36.090Z,63.15
2018-05-27T20:44:36.052Z,62.76
2018-05-27T20:45:36.022Z,63.24
2018-05-27T20:46:36.317Z,62.86
2018-05-27T20:47:36.008Z,62.66
2018-05-27T20:48:36.055Z,62.66
2018-05-27T20:49:36.125Z,62.37
2018-05-27T20:50:36.045Z,62.66
2018-05-27T20:51:35.969Z,62.37
2018-05-27T20:52:35.971Z,63.05
2018-05-27T20:53:36.254Z,63.05
2018-05-27T20:54:36.071Z,63.05
2018-05-27T20:55:35.981Z,63.50
2018-05-27T20:56:36.125Z,63.24
2018-05-27T20:57:35.919Z,63.98
2018-05-27T20:58:35.923Z,63.98
2018-05-27T20:59:35.933Z,64.01
2018-05-27T21:00:36.235Z,64.31
2018-05-27T21:01:35.925Z,63.98
2018-05-27T21:02:35.869Z,64.47
2018-05-27T21:03:35.864Z,65.05
2018-05-27T21:04:35.848Z,64.95
2018-05-27T21:05:35.839Z,65.63
2018-05-27T21:06:35.884Z,65.43
2018-05-27T21:07:36.204Z,65.53
2018-05-27T21:08:35.819Z,65.63
2018-05-27T21:09:35.809Z,65.72
2018-05-27T21:10:35.793Z,66.08
2018-05-27T21:11:35.803Z,66.20
2018-05-27T21:12:36.525Z,66.59
2018-05-27T21:13:36.073Z,66.36
2018-05-27T21:14:36.039Z,66.85
2018-05-27T21:15:35.756Z,67.04
2018-05-27T21:16:35.748Z,67.23
2018-05-27T21:18:35.782Z,67.33
2018-05-27T21:19:35.777Z,67.33
2018-05-27T21:20:36.015Z,67.23
2018-05-27T21:21:35.719Z,67.52
2018-05-27T21:22:35.748Z,67.43
2018-05-27T21:23:35.687Z,67.71
2018-05-27T21:24:35.718Z,67.91
2018-05-27T21:26:35.994Z,67.71
2018-05-27T21:27:35.696Z,68.77
2018-05-27T21:28:35.637Z,68.49
2018-05-27T21:29:35.615Z,68.59
2018-05-27T21:30:35.657Z,68.74
2018-05-27T21:31:35.605Z,69.13
2018-05-27T21:32:35.951Z,69.61
2018-05-27T21:33:35.802Z,69.80
2018-05-27T21:34:35.588Z,70.00
2018-05-27T21:35:35.575Z,70.28
2018-05-27T21:36:35.568Z,70.38
2018-05-27T21:37:35.556Z,70.67
2018-05-27T21:38:35.891Z,70.96
2018-05-27T21:39:35.573Z,71.15
2018-05-27T21:40:35.524Z,71.34
2018-05-27T21:41:35.505Z,71.54
2018-05-27T21:42:35.501Z,71.83
2018-05-27T21:43:35.494Z,71.25
2018-05-27T21:44:35.936Z,71.54
2018-05-27T21:45:35.475Z,72.02
2018-05-27T21:46:35.458Z,72.08
2018-05-27T21:47:35.444Z,72.18
2018-05-27T21:48:35.442Z,72.47
2018-05-27T21:49:35.432Z,73.14
2018-05-27T21:50:35.877Z,73.33
2018-05-27T21:51:35.464Z,74.01
2018-05-27T21:52:35.505Z,74.30
2018-05-27T21:53:35.387Z,74.78
2018-05-27T21:54:35.378Z,73.82
2018-05-27T21:55:35.378Z,74.30
2018-05-27T21:56:35.427Z,74.40
2018-05-27T21:57:35.714Z,74.40
2018-05-27T21:58:35.424Z,74.40
2018-05-27T21:59:35.355Z,74.68
2018-05-27T22:00:35.326Z,75.07
2018-05-27T22:01:35.310Z,75.36
2018-05-27T22:02:35.359Z,75.90
2018-05-27T22:03:35.401Z,76.76
2018-05-27T22:04:35.588Z,77.25
2018-05-27T22:05:35.287Z,77.34
2018-05-27T22:06:35.262Z,78.11
2018-05-27T22:07:35.257Z,78.11
2018-05-27T22:08:35.294Z,78.02
2018-05-27T22:09:35.282Z,78.50
2018-05-27T22:11:35.573Z,79.17
2018-05-27T22:12:35.209Z,79.85
2018-05-27T22:13:35.192Z,79.75
2018-05-27T22:14:35.183Z,80.96
2018-05-27T22:15:35.282Z,80.96
2018-05-27T22:16:35.243Z,81.63
2018-05-27T22:17:35.203Z,82.60
2018-05-27T22:18:35.456Z,81.93
2018-05-27T22:19:35.137Z,82.31
2018-05-27T22:21:35.174Z,82.70
2018-05-27T22:22:35.153Z,83.08
2018-05-27T22:23:35.099Z,84.05
2018-05-27T22:24:35.089Z,84.62
2018-05-27T22:25:35.387Z,84.48
2018-05-27T22:26:35.060Z,84.77
2018-05-27T22:27:35.209Z,85.83
2018-05-27T22:28:35.101Z,85.83
2018-05-27T22:29:35.040Z,86.69
2018-05-27T22:30:35.027Z,86.12
2018-05-27T22:31:35.020Z,86.79
2018-05-27T22:32:35.308Z,87.08
2018-05-27T22:33:35.041Z,87.08
2018-05-27T22:34:35.137Z,88.24
2018-05-27T22:35:34.975Z,87.76
2018-05-27T22:36:34.962Z,87.76
2018-05-27T22:37:34.955Z,88.53
2018-05-27T22:38:34.956Z,87.95
2018-05-27T22:39:35.234Z,88.04
2018-05-27T22:40:34.981Z,88.43
2018-05-27T22:41:34.960Z,89.01
2018-05-27T22:42:34.898Z,88.62
2018-05-27T22:43:34.892Z,89.10
2018-05-27T22:44:34.886Z,88.33
2018-05-27T22:45:35.175Z,87.76
2018-05-27T22:46:34.923Z,88.43
2018-05-27T22:47:34.900Z,88.24
2018-05-27T22:48:34.836Z,88.33
2018-05-27T22:49:34.835Z,88.33
2018-05-27T22:50:34.814Z,88.81
2018-05-27T22:51:35.214Z,89.49
2018-05-27T22:52:34.855Z,89.01
2018-05-27T22:53:34.836Z,88.71
2018-05-27T22:54:34.782Z,88.81
2018-05-27T22:55:34.772Z,88.53
2018-05-27T22:56:34.756Z,88.81
2018-05-27T22:57:34.754Z,89.20
2018-05-27T22:58:34.789Z,88.81
2018-05-27T22:59:34.773Z,88.53
2018-05-27T23:00:34.723Z,88.91
2018-05-27T23:01:34.703Z,89.20
2018-05-27T23:02:34.691Z,89.01
2018-05-27T23:03:34.989Z,89.87
2018-05-27T23:04:34.731Z,90.06
2018-05-27T23:05:34.731Z,90.26
2018-05-27T23:06:34.707Z,90.45
2018-05-27T23:07:34.750Z,90.06
2018-05-27T23:08:34.642Z,90.83
2018-05-27T23:10:34.925Z,90.83
2018-05-27T23:11:34.659Z,90.73
2018-05-27T23:12:34.700Z,90.73
2018-05-27T23:13:34.649Z,90.73
2018-05-27T23:14:34.590Z,90.73
2018-05-27T23:16:34.903Z,91.51
2018-05-27T23:17:34.554Z,90.83
2018-05-27T23:18:34.638Z,91.31
2018-05-27T23:19:34.626Z,91.60
2018-05-27T23:20:34.568Z,91.41
2018-05-27T23:21:34.556Z,91.31
2018-05-27T23:22:34.749Z,91.70
2018-05-27T23:23:34.485Z,91.51
2018-05-27T23:24:34.532Z,91.89
2018-05-27T23:25:34.515Z,92.28
2018-05-27T23:26:34.503Z,92.08
2018-05-27T23:27:34.443Z,92.57
2018-05-27T23:28:34.431Z,93.15
2018-05-27T23:29:34.716Z,92.85
2018-05-27T23:30:34.461Z,93.24
2018-05-27T23:31:34.443Z,93.00
2018-05-27T23:32:34.435Z,93.29
2018-05-27T23:33:34.372Z,93.29
2018-05-27T23:34:34.369Z,93.77
2018-05-27T23:35:34.363Z,94.25
2018-05-27T23:36:34.800Z,95.60
2018-05-27T23:37:34.331Z,95.60
2018-05-27T23:38:34.320Z,95.21
2018-05-27T23:39:34.313Z,95.79
2018-05-27T23:40:34.322Z,95.89
2018-05-27T23:41:34.296Z,95.89
2018-05-27T23:42:34.327Z,96.66
2018-05-27T23:43:34.634Z,95.89
2018-05-27T23:44:34.316Z,96.08
2018-05-27T23:45:34.255Z,96.27
2018-05-27T23:46:34.242Z,96.56
2018-05-27T23:47:34.227Z,96.27
2018-05-27T23:48:34.316Z,96.66
2018-05-27T23:49:34.264Z,96.37
2018-05-27T23:50:34.548Z,96.75
2018-05-27T23:51:34.186Z,96.66
2018-05-27T23:52:34.174Z,96.37
2018-05-27T23:53:34.166Z,96.94
2018-05-27T23:54:34.208Z,97.42
2018-05-27T23:55:34.191Z,97.62
2018-05-27T23:56:34.281Z,97.42
2018-05-27T23:57:34.423Z,96.94
2018-05-27T23:58:34.118Z,97.24
2018-05-27T23:59:34.116Z,97.52
